createdAt,value
2019-03-23T00:00:43.666Z,38.67
2019-03-23T00:03:17.296Z,36.23
2019-03-23T00:05:48.841Z,37.63
2019-03-23T00:08:19.770Z,36.93
2019-03-23T00:10:50.740Z,51.97
2019-03-23T00:13:21.749Z,39.17
2019-03-23T00:15:53.148Z,37.90
2019-03-23T00:18:24.381Z,37.60
2019-03-23T00:20:55.983Z,39.37
2019-03-23T00:23:29.919Z,40.83
2019-03-23T00:26:00.906Z,36.30
2019-03-23T00:28:32.289Z,38.40
2019-03-23T00:31:03.287Z,35.80
2019-03-23T00:33:35.679Z,42.73
2019-03-23T00:36:06.561Z,37.77
2019-03-23T00:38:38.395Z,41.83
2019-03-23T00:41:09.947Z,40.47
2019-03-23T00:43:42.420Z,44.23
2019-03-23T00:46:15.049Z,46.90
2019-03-23T00:48:46.044Z,42.20
2019-03-23T00:51:18.105Z,34.97
2019-03-23T00:53:50.890Z,37.63
2019-03-23T00:56:22.548Z,45.00
2019-03-23T00:58:53.849Z,46.77
2019-03-23T01:01:27.730Z,35.37
2019-03-23T01:04:02.474Z,39.63
2019-03-23T01:06:34.851Z,38.83
2019-03-23T01:09:08.034Z,33.53
2019-03-23T01:11:41.561Z,36.80
2019-03-23T01:14:12.864Z,39.23
2019-03-23T01:16:45.338Z,36.77
2019-03-23T01:19:18.077Z,38.77
2019-03-23T01:21:49.142Z,44.13
2019-03-23T01:24:20.103Z,37.87
2019-03-23T01:26:50.994Z,38.30
2019-03-23T01:29:22.280Z,37.33
2019-03-23T01:31:55.159Z,45.00
2019-03-23T01:34:27.770Z,37.63
2019-03-23T01:37:03.044Z,44.37
2019-03-23T01:39:33.695Z,37.90
2019-03-23T01:42:04.630Z,36.73
2019-03-23T01:44:37.441Z,37.10
2019-03-23T01:47:09.481Z,45.77
2019-03-23T01:49:40.526Z,37.40
2019-03-23T01:52:11.501Z,38.77
2019-03-23T01:54:43.446Z,37.03
2019-03-23T01:57:15.802Z,38.13
2019-03-23T01:59:47.067Z,35.97
2019-03-23T02:02:19.410Z,33.27
2019-03-23T02:04:50.461Z,37.20
2019-03-23T02:07:22.141Z,35.00
2019-03-23T02:09:53.022Z,34.70
2019-03-23T02:12:25.351Z,35.93
2019-03-23T02:14:56.328Z,35.70
2019-03-23T02:17:28.469Z,42.90
2019-03-23T02:20:01.282Z,41.40
2019-03-23T02:22:32.495Z,42.97
2019-03-23T02:25:04.754Z,42.00
2019-03-23T02:27:35.587Z,32.30
2019-03-23T02:30:07.395Z,39.83
2019-03-23T02:32:40.200Z,40.83
2019-03-23T02:35:13.448Z,37.80
2019-03-23T02:37:46.203Z,33.57
2019-03-23T02:40:18.787Z,34.47
2019-03-23T02:42:49.741Z,33.57
2019-03-23T02:45:21.077Z,36.10
2019-03-23T02:47:52.451Z,33.70
2019-03-23T02:50:24.127Z,39.47
2019-03-23T02:52:55.083Z,31.50
2019-03-23T02:55:27.907Z,37.57
2019-03-23T02:57:59.317Z,31.67
2019-03-23T03:00:33.210Z,30.63
2019-03-23T03:03:04.484Z,34.27
2019-03-23T03:05:35.455Z,31.10
2019-03-23T03:08:08.246Z,40.03
2019-03-23T03:10:43.585Z,36.00
2019-03-23T03:13:15.037Z,35.90
2019-03-23T03:15:46.394Z,34.63
2019-03-23T03:18:17.306Z,30.77
2019-03-23T03:20:49.815Z,38.50
2019-03-23T03:23:22.116Z,38.53
2019-03-23T03:25:53.501Z,36.47
2019-03-23T03:28:24.896Z,33.07
2019-03-23T03:30:55.923Z,30.50
2019-03-23T03:33:28.751Z,36.33
2019-03-23T03:36:01.307Z,35.13
2019-03-23T03:38:34.471Z,35.37
2019-03-23T03:41:05.693Z,37.03
2019-03-23T03:43:37.849Z,32.33
2019-03-23T03:46:09.223Z,37.90
2019-03-23T03:48:40.343Z,42.53
2019-03-23T03:51:11.330Z,38.40
2019-03-23T03:53:42.323Z,34.53
2019-03-23T03:56:14.417Z,28.53
2019-03-23T03:58:45.306Z,29.30
2019-03-23T04:01:16.837Z,35.57
2019-03-23T04:03:48.235Z,31.90
2019-03-23T04:06:22.244Z,39.80
2019-03-23T04:08:53.522Z,31.43
2019-03-23T04:11:25.189Z,31.47
2019-03-23T04:13:56.533Z,32.20
2019-03-23T04:16:30.442Z,31.67
2019-03-23T04:19:02.468Z,29.63
2019-03-23T04:21:35.421Z,31.27
2019-03-23T04:24:06.744Z,37.30
2019-03-23T04:26:39.992Z,31.20
2019-03-23T04:29:13.085Z,32.67
2019-03-23T04:31:45.577Z,31.40
2019-03-23T04:34:17.797Z,35.97
2019-03-23T04:36:50.629Z,35.23
2019-03-23T04:39:22.619Z,42.67
2019-03-23T04:41:55.899Z,38.23
2019-03-23T04:44:29.004Z,34.77
2019-03-23T04:47:01.042Z,34.03
2019-03-23T04:49:33.258Z,32.77
2019-03-23T04:52:04.362Z,32.80
2019-03-23T04:54:35.850Z,35.40
2019-03-23T04:57:07.906Z,33.90
2019-03-23T04:59:39.251Z,37.23
2019-03-23T05:02:10.672Z,32.07
2019-03-23T05:04:43.980Z,29.53
2019-03-23T05:07:14.996Z,39.60
2019-03-23T05:09:49.089Z,29.93
2019-03-23T05:12:21.467Z,32.30
2019-03-23T05:14:53.933Z,26.43
2019-03-23T05:17:27.499Z,30.90
2019-03-23T05:19:58.857Z,29.00
2019-03-23T05:22:29.885Z,29.17
2019-03-23T05:25:01.069Z,38.77
2019-03-23T05:27:34.133Z,32.00
2019-03-23T05:30:06.936Z,30.70
2019-03-23T05:32:38.825Z,41.40
2019-03-23T05:35:10.162Z,27.00
2019-03-23T05:37:41.473Z,30.10
2019-03-23T05:40:14.051Z,36.03
2019-03-23T05:42:45.348Z,28.07
2019-03-23T05:45:16.413Z,31.33
2019-03-23T05:47:48.299Z,24.90
2019-03-23T05:50:22.053Z,26.97
2019-03-23T05:52:53.805Z,30.67
2019-03-23T05:55:27.104Z,29.83
2019-03-23T05:57:59.784Z,26.70
2019-03-23T06:00:31.829Z,31.33
2019-03-23T06:03:03.060Z,21.57
2019-03-23T06:05:34.838Z,24.40
2019-03-23T06:08:06.945Z,22.53
2019-03-23T06:10:39.001Z,20.23
2019-03-23T06:13:10.291Z,22.27
2019-03-23T06:15:43.129Z,24.37
2019-03-23T06:18:14.335Z,23.47
2019-03-23T06:20:46.730Z,20.90
2019-03-23T06:23:21.017Z,23.43
2019-03-23T06:25:54.452Z,20.40
2019-03-23T06:28:25.449Z,20.57
2019-03-23T06:30:56.714Z,20.50
2019-03-23T06:33:30.649Z,21.03
2019-03-23T06:36:02.746Z,21.03
2019-03-23T06:38:33.812Z,21.23
2019-03-23T06:41:07.552Z,21.13
2019-03-23T06:43:38.777Z,16.30
2019-03-23T06:46:12.273Z,22.13
2019-03-23T06:48:43.396Z,19.70
2019-03-23T06:51:14.330Z,20.03
2019-03-23T06:53:45.704Z,21.07
2019-03-23T06:56:16.953Z,19.30
2019-03-23T06:58:51.349Z,20.07
2019-03-23T07:01:22.379Z,19.40
2019-03-23T07:03:54.064Z,17.93
2019-03-23T07:06:26.213Z,21.03
2019-03-23T07:08:57.148Z,17.67
2019-03-23T07:11:29.402Z,22.00
2019-03-23T07:14:01.592Z,21.93
2019-03-23T07:16:33.767Z,17.73
2019-03-23T07:19:08.343Z,19.27
2019-03-23T07:21:39.649Z,16.03
2019-03-23T07:24:13.670Z,14.20
2019-03-23T07:26:44.676Z,19.13
2019-03-23T07:29:17.024Z,19.90
2019-03-23T07:31:48.478Z,17.03
2019-03-23T07:34:22.411Z,17.23
2019-03-23T07:36:54.511Z,18.27
2019-03-23T07:39:28.221Z,17.30
2019-03-23T07:42:00.124Z,17.00
2019-03-23T07:44:33.339Z,17.60
2019-03-23T07:47:06.970Z,18.67
2019-03-23T07:49:40.064Z,22.33
2019-03-23T07:52:11.315Z,20.20
2019-03-23T07:54:43.651Z,21.83
2019-03-23T07:57:14.567Z,18.87
2019-03-23T07:59:45.552Z,19.20
2019-03-23T08:02:16.671Z,19.87
2019-03-23T08:04:47.645Z,20.03
2019-03-23T08:07:18.588Z,20.37
2019-03-23T08:09:52.802Z,23.33
2019-03-23T08:12:24.050Z,22.27
2019-03-23T08:14:55.706Z,20.47
2019-03-23T08:17:27.330Z,16.87
2019-03-23T08:19:58.610Z,19.67
2019-03-23T08:22:30.119Z,21.73
2019-03-23T08:25:01.104Z,20.87
2019-03-23T08:27:32.345Z,22.53
2019-03-23T08:30:05.145Z,25.60
2019-03-23T08:32:37.165Z,22.35
2019-03-23T08:35:09.036Z,27.85
2019-03-23T08:37:40.722Z,25.15
2019-03-23T08:40:12.907Z,27.15
2019-03-23T08:42:46.288Z,27.07
2019-03-23T08:45:17.199Z,32.40
2019-03-23T08:47:48.156Z,30.57
2019-03-23T08:50:19.078Z,30.67
2019-03-23T08:52:51.260Z,32.03
2019-03-23T08:55:22.969Z,37.53
2019-03-23T08:57:54.278Z,32.33
2019-03-23T09:00:27.406Z,34.77
2019-03-23T09:03:00.401Z,32.63
2019-03-23T09:05:33.258Z,36.70
2019-03-23T09:08:06.678Z,34.97
2019-03-23T09:10:39.236Z,37.30
2019-03-23T09:13:10.146Z,38.83
2019-03-23T09:15:42.846Z,40.93
2019-03-23T09:18:14.359Z,40.57
2019-03-23T09:20:47.927Z,42.57
2019-03-23T09:23:20.709Z,34.97
2019-03-23T09:25:52.845Z,41.07
2019-03-23T09:28:26.342Z,37.90
2019-03-23T09:30:58.811Z,43.83
2019-03-23T09:33:30.330Z,36.73
2019-03-23T09:36:01.258Z,40.67
2019-03-23T09:38:32.249Z,45.97
2019-03-23T09:41:04.284Z,43.40
2019-03-23T09:43:35.610Z,43.30
2019-03-23T09:46:06.799Z,42.90
2019-03-23T09:48:37.959Z,44.13
2019-03-23T09:51:10.583Z,43.47
2019-03-23T09:53:42.541Z,43.23
2019-03-23T09:56:15.757Z,41.77
2019-03-23T09:58:46.836Z,41.90
2019-03-23T10:01:20.998Z,45.07
2019-03-23T10:03:52.385Z,46.33
2019-03-23T10:06:23.726Z,47.13
2019-03-23T10:08:54.737Z,38.55
2019-03-23T10:11:25.714Z,42.25
2019-03-23T10:13:57.137Z,45.90
2019-03-23T10:16:28.418Z,47.05
2019-03-23T10:19:00.389Z,48.65
2019-03-23T10:21:32.895Z,43.70
2019-03-23T10:24:05.920Z,45.35
2019-03-23T10:26:37.953Z,43.70
2019-03-23T10:29:09.582Z,50.52
2019-03-23T10:31:43.187Z,45.45
2019-03-23T10:34:14.211Z,44.93
2019-03-23T10:36:45.590Z,42.93
2019-03-23T10:39:18.391Z,37.63
2019-03-23T10:41:51.342Z,43.17
2019-03-23T10:44:24.513Z,40.65
2019-03-23T10:46:55.781Z,45.35
2019-03-23T10:49:29.498Z,43.13
2019-03-23T10:52:01.816Z,42.43
2019-03-23T10:54:34.058Z,50.08
2019-03-23T10:57:05.282Z,44.77
2019-03-23T10:59:36.714Z,44.25
2019-03-23T11:02:09.185Z,41.02
2019-03-23T11:04:44.053Z,38.98
2019-03-23T11:07:17.257Z,37.63
2019-03-23T11:09:51.801Z,51.10
2019-03-23T11:12:24.028Z,48.42
2019-03-23T11:14:55.974Z,45.45
2019-03-23T11:17:27.019Z,45.05
2019-03-23T11:19:58.617Z,46.08
2019-03-23T11:22:31.062Z,41.73
2019-03-23T11:25:02.314Z,43.78
2019-03-23T11:27:33.667Z,36.58
2019-03-23T11:30:05.068Z,31.68
2019-03-23T11:32:36.249Z,38.90
2019-03-23T11:35:08.150Z,30.65
2019-03-23T11:37:40.790Z,30.17
2019-03-23T11:40:13.351Z,31.50
2019-03-23T11:42:50.275Z,36.38
2019-03-23T11:45:19.170Z,31.90
2019-03-23T11:47:52.997Z,30.97
2019-03-23T11:50:24.946Z,36.42
2019-03-23T11:52:57.314Z,34.50
2019-03-23T11:55:28.229Z,36.68
2019-03-23T11:58:00.703Z,40.35
2019-03-23T12:00:32.159Z,33.92
2019-03-23T12:03:04.838Z,37.93
2019-03-23T12:05:36.075Z,36.98
2019-03-23T12:08:09.523Z,34.13
2019-03-23T12:10:41.238Z,35.50
2019-03-23T12:13:12.483Z,36.50
2019-03-23T12:15:45.577Z,28.77
2019-03-23T12:18:18.354Z,29.92
2019-03-23T12:20:52.341Z,22.87
2019-03-23T12:23:25.354Z,27.35
2019-03-23T12:25:56.591Z,29.60
2019-03-23T12:28:29.268Z,31.90
2019-03-23T12:31:01.675Z,33.75
2019-03-23T12:33:33.208Z,28.85
2019-03-23T12:36:04.504Z,25.23
2019-03-23T12:38:35.620Z,28.67
2019-03-23T12:41:14.164Z,29.75
2019-03-23T12:43:39.837Z,32.40
2019-03-23T12:46:11.126Z,32.75
2019-03-23T12:48:42.168Z,32.70
2019-03-23T12:51:14.540Z,38.50
2019-03-23T12:53:45.436Z,34.90
2019-03-23T12:56:16.415Z,35.88
2019-03-23T12:58:48.141Z,37.10
2019-03-23T13:01:20.158Z,39.38
2019-03-23T13:03:51.553Z,38.23
2019-03-23T13:06:22.448Z,42.67
2019-03-23T13:08:55.225Z,41.97
2019-03-23T13:11:34.747Z,35.87
2019-03-23T13:13:59.522Z,36.67
2019-03-23T13:16:33.119Z,39.67
2019-03-23T13:19:05.486Z,40.53
2019-03-23T13:21:37.137Z,36.77
2019-03-23T13:24:09.203Z,41.53
2019-03-23T13:26:40.449Z,39.87
2019-03-23T13:31:52.206Z,37.27
2019-03-23T13:34:23.547Z,39.70
2019-03-23T13:36:56.888Z,39.13
2019-03-23T13:39:29.017Z,37.90
2019-03-23T13:42:00.574Z,38.43
2019-03-23T13:44:31.666Z,44.70
2019-03-23T13:47:03.018Z,35.47
2019-03-23T13:49:36.414Z,38.77
2019-03-23T13:52:09.501Z,44.23
2019-03-23T13:54:40.845Z,39.17
2019-03-23T13:57:12.125Z,43.43
2019-03-23T13:59:45.858Z,40.63
2019-03-23T14:02:20.442Z,37.00
2019-03-23T14:04:51.880Z,38.33
2019-03-23T14:07:22.893Z,44.43
2019-03-23T14:09:54.981Z,40.40
2019-03-23T14:12:29.170Z,36.20
2019-03-23T14:15:01.833Z,41.77
2019-03-23T14:17:32.839Z,42.30
2019-03-23T14:20:04.188Z,34.97
2019-03-23T14:22:36.881Z,39.07
2019-03-23T14:25:08.045Z,35.20
2019-03-23T14:27:41.693Z,37.47
2019-03-23T14:30:13.264Z,35.47
2019-03-23T14:32:44.288Z,38.40
2019-03-23T14:35:15.206Z,39.30
2019-03-23T14:37:46.506Z,35.43
2019-03-23T14:40:17.521Z,33.30
2019-03-23T14:42:48.546Z,33.83
2019-03-23T14:45:20.816Z,35.03
2019-03-23T14:47:53.438Z,30.77
2019-03-23T14:50:25.405Z,29.27
2019-03-23T14:52:57.437Z,30.73
2019-03-23T14:55:28.702Z,37.00
2019-03-23T14:57:59.637Z,43.93
2019-03-23T15:00:34.131Z,33.97
2019-03-23T15:03:06.582Z,31.73
2019-03-23T15:05:39.323Z,39.20
2019-03-23T15:08:10.713Z,39.37
2019-03-23T15:10:43.378Z,36.83
2019-03-23T15:13:15.556Z,29.83
2019-03-23T15:15:48.391Z,34.10
2019-03-23T15:18:21.533Z,33.17
2019-03-23T15:20:52.580Z,38.93
2019-03-23T15:23:26.507Z,37.10
2019-03-23T15:25:57.461Z,40.10
2019-03-23T15:28:28.493Z,34.27
2019-03-23T15:31:00.153Z,34.53
2019-03-23T15:33:32.877Z,35.47
2019-03-23T15:36:04.133Z,38.20
2019-03-23T15:38:35.480Z,35.10
2019-03-23T15:41:06.716Z,40.17
2019-03-23T15:43:38.972Z,37.57
2019-03-23T15:46:10.066Z,37.23
2019-03-23T15:48:41.149Z,42.17
2019-03-23T15:51:12.965Z,36.63
2019-03-23T15:53:43.976Z,40.60
2019-03-23T15:56:16.945Z,43.63
2019-03-23T15:58:48.222Z,40.07
2019-03-23T16:01:20.895Z,42.90
2019-03-23T16:03:53.747Z,39.13
2019-03-23T16:06:27.888Z,43.80
2019-03-23T16:08:59.673Z,42.57
2019-03-23T16:11:30.989Z,51.87
2019-03-23T16:14:03.675Z,52.40
2019-03-23T16:16:36.259Z,52.03
2019-03-23T16:19:07.607Z,50.40
2019-03-23T16:21:38.610Z,51.40
2019-03-23T16:24:09.661Z,58.03
2019-03-23T16:26:40.615Z,55.00
2019-03-23T16:29:11.941Z,61.80
2019-03-23T16:31:45.097Z,50.00
2019-03-23T16:34:17.408Z,63.17
2019-03-23T16:36:48.448Z,57.43
2019-03-23T16:39:20.209Z,52.27
2019-03-23T16:41:54.816Z,57.67
2019-03-23T16:44:26.243Z,55.17
2019-03-23T16:46:59.752Z,57.20
2019-03-23T16:49:30.779Z,57.80
2019-03-23T16:52:01.769Z,59.77
2019-03-23T16:54:33.305Z,59.30
2019-03-23T16:57:04.271Z,56.20
2019-03-23T16:59:35.648Z,49.63
2019-03-23T17:02:06.608Z,60.67
2019-03-23T17:04:39.391Z,65.67
2019-03-23T17:07:11.541Z,58.90
2019-03-23T17:09:44.290Z,64.23
2019-03-23T17:12:15.276Z,57.97
2019-03-23T17:14:46.272Z,59.97
2019-03-23T17:17:19.127Z,59.47
2019-03-23T17:19:52.041Z,58.00
2019-03-23T17:22:23.625Z,60.83
2019-03-23T17:24:54.725Z,59.43
2019-03-23T17:27:25.713Z,58.73
2019-03-23T17:29:58.286Z,61.03
2019-03-23T17:32:31.137Z,64.33
2019-03-23T17:35:02.287Z,64.60
2019-03-23T17:37:35.939Z,56.07
2019-03-23T17:40:07.596Z,62.97
2019-03-23T17:42:41.013Z,62.53
2019-03-23T17:45:13.517Z,57.93
2019-03-23T17:47:46.845Z,58.23
2019-03-23T17:50:17.845Z,62.90
2019-03-23T17:52:49.065Z,61.73
2019-03-23T17:55:22.788Z,61.03
2019-03-23T17:57:53.845Z,64.77
2019-03-23T18:00:25.057Z,61.70
2019-03-23T18:02:57.045Z,66.70
2019-03-23T18:05:31.301Z,67.60
2019-03-23T18:08:06.799Z,62.47
2019-03-23T18:10:37.777Z,67.50
2019-03-23T18:13:16.583Z,56.77
2019-03-23T18:15:45.613Z,62.83
2019-03-23T18:18:18.391Z,56.63
2019-03-23T18:20:50.377Z,64.77
2019-03-23T18:23:23.083Z,61.83
2019-03-23T18:25:56.472Z,65.83
2019-03-23T18:28:28.785Z,71.93
2019-03-23T18:31:01.414Z,63.90
2019-03-23T18:33:33.039Z,67.70
2019-03-23T18:36:03.968Z,72.67
2019-03-23T18:38:34.991Z,70.80
2019-03-23T18:41:07.327Z,69.33
2019-03-23T18:43:39.751Z,66.37
2019-03-23T18:46:11.330Z,70.93
2019-03-23T18:48:43.556Z,75.10
2019-03-23T18:51:14.792Z,77.80
2019-03-23T18:53:46.901Z,72.83
2019-03-23T18:56:17.850Z,65.40
2019-03-23T18:58:49.249Z,63.13
2019-03-23T19:01:21.901Z,67.87
2019-03-23T19:03:52.896Z,62.37
2019-03-23T19:06:25.780Z,70.13
2019-03-23T19:08:56.974Z,64.80
2019-03-23T19:11:27.928Z,66.23
2019-03-23T19:13:59.242Z,67.13
2019-03-23T19:16:31.933Z,65.03
2019-03-23T19:19:03.884Z,69.17
2019-03-23T19:21:35.049Z,67.97
2019-03-23T19:24:09.242Z,58.63
2019-03-23T19:26:40.497Z,78.47
2019-03-23T19:29:12.540Z,65.43
2019-03-23T19:31:43.478Z,76.20
2019-03-23T19:34:14.421Z,62.67
2019-03-23T19:36:45.925Z,67.90
2019-03-23T19:39:19.011Z,68.53
2019-03-23T19:41:51.255Z,70.63
2019-03-23T19:44:22.265Z,70.00
2019-03-23T19:46:53.406Z,73.20
2019-03-23T19:49:26.189Z,66.63
2019-03-23T19:51:59.524Z,63.47
2019-03-23T19:54:30.776Z,67.50
2019-03-23T19:57:02.777Z,63.17
2019-03-23T19:59:34.043Z,72.83
2019-03-23T20:02:05.073Z,77.73
2019-03-23T20:04:36.692Z,93.03
2019-03-23T20:07:08.795Z,72.87
2019-03-23T20:09:40.664Z,87.97
2019-03-23T20:12:13.883Z,64.40
2019-03-23T20:14:44.946Z,68.20
2019-03-23T20:17:16.245Z,66.67
2019-03-23T20:19:48.554Z,60.00
2019-03-23T20:22:21.729Z,66.87
2019-03-23T20:24:54.237Z,64.20
2019-03-23T20:27:26.694Z,71.97
2019-03-23T20:29:57.713Z,78.87
2019-03-23T20:32:29.825Z,67.73
2019-03-23T20:35:03.045Z,70.33
2019-03-23T20:37:34.103Z,63.47
2019-03-23T20:40:05.984Z,64.60
2019-03-23T20:42:37.067Z,59.70
2019-03-23T20:45:09.618Z,57.10
2019-03-23T20:47:43.745Z,53.33
2019-03-23T20:50:15.078Z,56.60
2019-03-23T20:52:47.058Z,59.50
2019-03-23T20:55:31.329Z,61.53
2019-03-23T20:58:02.617Z,54.57
2019-03-23T21:00:35.194Z,66.37
2019-03-23T21:03:06.404Z,60.97
2019-03-23T21:05:40.503Z,65.03
2019-03-23T21:08:11.478Z,65.57
2019-03-23T21:10:42.642Z,59.90
2019-03-23T21:13:13.765Z,71.33
2019-03-23T21:15:46.449Z,57.23
2019-03-23T21:18:18.051Z,61.27
2019-03-23T21:20:50.916Z,61.20
2019-03-23T21:23:22.089Z,56.80
2019-03-23T21:25:52.981Z,73.80
2019-03-23T21:28:24.025Z,60.83
2019-03-23T21:30:54.960Z,63.53
2019-03-23T21:33:31.993Z,65.40
2019-03-23T21:36:00.641Z,61.40
2019-03-23T21:38:36.419Z,66.03
2019-03-23T21:41:09.466Z,61.10
2019-03-23T21:43:43.605Z,56.40
2019-03-23T21:48:48.638Z,70.17
2019-03-23T21:51:21.560Z,62.17
2019-03-23T21:53:54.412Z,64.20
2019-03-23T21:56:26.098Z,57.57
2019-03-23T21:58:58.955Z,55.10
2019-03-23T22:01:30.697Z,61.67
2019-03-23T22:04:01.920Z,62.87
2019-03-23T22:06:36.004Z,57.57
2019-03-23T22:09:08.224Z,65.60
2019-03-23T22:11:40.379Z,66.53
2019-03-23T22:14:11.560Z,60.87
2019-03-23T22:16:44.673Z,58.60
2019-03-23T22:19:17.585Z,63.80
2019-03-23T22:21:50.279Z,61.27
2019-03-23T22:24:23.499Z,62.87
2019-03-23T22:26:54.452Z,64.10
2019-03-23T22:29:26.750Z,63.93
2019-03-23T22:31:57.763Z,66.37
2019-03-23T22:34:29.087Z,65.47
2019-03-23T22:37:01.176Z,67.77
2019-03-23T22:39:32.480Z,69.07
2019-03-23T22:42:05.447Z,65.60
2019-03-23T22:44:39.277Z,65.23
2019-03-23T22:47:10.790Z,65.77
2019-03-23T22:49:43.373Z,59.10
2019-03-23T22:52:15.011Z,62.60
2019-03-23T22:54:46.071Z,60.83
2019-03-23T22:57:17.095Z,60.07
2019-03-23T22:59:49.337Z,59.53
2019-03-23T23:02:20.639Z,61.90
2019-03-23T23:04:52.551Z,53.07
2019-03-23T23:07:24.510Z,60.80
2019-03-23T23:09:57.458Z,57.53
2019-03-23T23:12:28.736Z,52.77
2019-03-23T23:15:04.754Z,56.87
2019-03-23T23:17:34.565Z,53.83
2019-03-23T23:20:08.445Z,54.40
2019-03-23T23:22:42.843Z,54.67
2019-03-23T23:25:14.114Z,54.37
2019-03-23T23:27:46.629Z,60.50
2019-03-23T23:30:18.129Z,57.77
2019-03-23T23:32:51.270Z,57.07
2019-03-23T23:35:23.984Z,58.47
2019-03-23T23:37:54.955Z,64.87
2019-03-23T23:40:29.041Z,65.10
2019-03-23T23:43:01.145Z,56.37
2019-03-23T23:45:35.175Z,56.37
2019-03-23T23:48:06.433Z,53.87
2019-03-23T23:50:39.297Z,59.37
2019-03-23T23:53:11.415Z,63.33
2019-03-23T23:55:43.487Z,59.23
2019-03-23T23:58:14.477Z,51.73
